createdAt,value
2023-06-19T00:00:28.041Z,29.65
2023-06-19T00:01:28.054Z,29.66
2023-06-19T00:02:28.173Z,29.64
2023-06-19T00:03:28.086Z,29.62
2023-06-19T00:04:28.196Z,29.62
2023-06-19T00:05:28.033Z,29.62
2023-06-19T00:06:28.040Z,29.61
2023-06-19T00:07:28.090Z,29.64
2023-06-19T00:08:28.093Z,29.64
2023-06-19T00:09:28.444Z,29.65
2023-06-19T00:10:28.037Z,29.66
2023-06-19T00:11:28.059Z,29.65
2023-06-19T00:12:28.075Z,29.64
2023-06-19T00:13:28.116Z,29.62
2023-06-19T00:14:28.094Z,29.64
2023-06-19T00:15:28.081Z,29.64
2023-06-19T00:16:28.102Z,29.65
2023-06-19T00:17:28.098Z,29.64
2023-06-19T00:18:28.119Z,29.64
2023-06-19T00:19:28.104Z,29.62
2023-06-19T00:20:28.118Z,29.66
2023-06-19T00:21:28.118Z,29.66
2023-06-19T00:22:28.131Z,29.70
2023-06-19T00:23:28.136Z,29.66
2023-06-19T00:24:28.236Z,29.62
2023-06-19T00:25:28.116Z,29.61
2023-06-19T00:26:28.215Z,29.62
2023-06-19T00:27:28.153Z,29.64
2023-06-19T00:28:28.132Z,29.64
2023-06-19T00:29:28.175Z,29.62
2023-06-19T00:30:28.125Z,29.68
2023-06-19T00:31:28.141Z,29.63
2023-06-19T00:32:28.162Z,29.63
2023-06-19T00:33:28.163Z,29.68
2023-06-19T00:34:28.174Z,29.70
2023-06-19T00:35:28.186Z,29.62
2023-06-19T00:36:28.187Z,29.59
2023-06-19T00:37:28.189Z,29.68
2023-06-19T00:38:28.191Z,29.66
2023-06-19T00:39:28.196Z,29.68
2023-06-19T00:40:28.221Z,29.70
2023-06-19T00:41:28.298Z,29.66
2023-06-19T00:42:28.206Z,29.66
2023-06-19T00:43:28.231Z,29.66
2023-06-19T00:44:28.233Z,29.70
2023-06-19T00:45:28.231Z,29.65
2023-06-19T00:46:28.315Z,29.66
2023-06-19T00:47:28.290Z,29.68
2023-06-19T00:48:28.282Z,29.68
2023-06-19T00:49:28.329Z,29.69
2023-06-19T00:50:28.266Z,29.70
2023-06-19T00:51:28.273Z,29.70
2023-06-19T00:52:28.293Z,29.67
2023-06-19T00:53:28.253Z,29.73
2023-06-19T00:54:28.304Z,29.70
2023-06-19T00:55:28.391Z,29.69
2023-06-19T00:56:28.367Z,29.66
2023-06-19T00:57:28.366Z,29.70
2023-06-19T00:58:28.328Z,29.70
2023-06-19T00:59:28.330Z,29.69
2023-06-19T01:00:29.222Z,29.70
2023-06-19T01:01:28.384Z,29.67
2023-06-19T01:02:28.413Z,29.72
2023-06-19T01:03:28.400Z,29.75
2023-06-19T01:04:28.331Z,29.72
2023-06-19T01:05:28.363Z,29.67
2023-06-19T01:06:28.327Z,29.72
2023-06-19T01:07:28.691Z,29.69
2023-06-19T01:08:28.397Z,29.69
2023-06-19T01:09:28.352Z,29.70
2023-06-19T01:10:28.639Z,29.71
2023-06-19T01:11:28.363Z,29.67
2023-06-19T01:12:28.440Z,29.72
2023-06-19T01:13:28.392Z,29.71
2023-06-19T01:14:28.409Z,29.71
2023-06-19T01:15:28.441Z,29.73
2023-06-19T01:16:28.423Z,29.71
2023-06-19T01:17:28.484Z,29.75
2023-06-19T01:18:28.415Z,29.69
2023-06-19T01:19:28.423Z,29.74
2023-06-19T01:20:28.422Z,29.71
2023-06-19T01:21:28.434Z,29.76
2023-06-19T01:22:28.506Z,29.74
2023-06-19T01:23:28.466Z,29.76
2023-06-19T01:24:28.537Z,29.73
2023-06-19T01:25:28.462Z,29.73
2023-06-19T01:26:28.477Z,29.76
2023-06-19T01:27:28.503Z,29.71
2023-06-19T01:28:28.591Z,29.74
2023-06-19T01:29:28.541Z,29.81
2023-06-19T01:30:28.574Z,29.73
2023-06-19T01:31:28.622Z,29.73
2023-06-19T01:32:28.610Z,29.76
2023-06-19T01:33:28.592Z,29.77
2023-06-19T01:34:28.585Z,29.73
2023-06-19T01:35:28.646Z,29.73
2023-06-19T01:36:28.593Z,29.75
2023-06-19T01:37:28.651Z,29.74
2023-06-19T01:38:28.625Z,29.76
2023-06-19T01:39:28.609Z,29.74
2023-06-19T01:40:28.647Z,29.76
2023-06-19T01:41:28.654Z,29.78
2023-06-19T01:42:28.632Z,29.78
2023-06-19T01:43:28.702Z,29.78
2023-06-19T01:44:28.705Z,29.77
2023-06-19T01:45:28.686Z,29.77
2023-06-19T01:46:28.760Z,29.78
2023-06-19T01:47:28.763Z,29.84
2023-06-19T01:48:28.733Z,29.80
2023-06-19T01:49:28.757Z,29.75
2023-06-19T01:50:28.745Z,29.76
2023-06-19T01:51:28.792Z,29.76
2023-06-19T01:52:29.088Z,29.81
2023-06-19T01:53:28.768Z,29.77
2023-06-19T01:54:28.829Z,29.84
2023-06-19T01:55:28.777Z,29.76
2023-06-19T01:56:28.787Z,29.79
2023-06-19T01:57:28.794Z,29.79
2023-06-19T01:58:28.809Z,29.79
2023-06-19T01:59:28.790Z,29.81
2023-06-19T02:00:29.581Z,29.79
2023-06-19T02:01:28.890Z,29.86
2023-06-19T02:02:28.854Z,29.82
2023-06-19T02:03:28.899Z,29.81
2023-06-19T02:04:28.833Z,29.82
2023-06-19T02:05:28.845Z,29.82
2023-06-19T02:06:29.251Z,29.84
2023-06-19T02:07:28.915Z,29.82
2023-06-19T02:08:28.908Z,29.81
2023-06-19T02:09:28.903Z,29.82
2023-06-19T02:10:28.921Z,29.82
2023-06-19T02:11:28.952Z,29.81
2023-06-19T02:12:28.887Z,29.85
2023-06-19T02:13:28.944Z,29.83
2023-06-19T02:14:28.897Z,29.82
2023-06-19T02:15:28.984Z,29.84
2023-06-19T02:16:29.009Z,29.85
2023-06-19T02:17:29.083Z,29.86
2023-06-19T02:18:29.239Z,29.85
2023-06-19T02:19:29.011Z,29.88
2023-06-19T02:20:28.995Z,29.85
2023-06-19T02:21:29.003Z,29.89
2023-06-19T02:22:29.071Z,29.88
2023-06-19T02:23:29.066Z,29.88
2023-06-19T02:24:29.113Z,29.91
2023-06-19T02:25:29.048Z,29.86
2023-06-19T02:26:29.083Z,29.89
2023-06-19T02:27:29.086Z,29.86
2023-06-19T02:28:29.106Z,29.88
2023-06-19T02:29:29.461Z,29.88
2023-06-19T02:30:29.197Z,29.88
2023-06-19T02:31:29.177Z,29.85
2023-06-19T02:32:29.364Z,29.91
2023-06-19T02:33:29.146Z,29.89
2023-06-19T02:34:29.293Z,29.86
2023-06-19T02:35:29.198Z,29.92
2023-06-19T02:36:29.257Z,29.91
2023-06-19T02:37:29.270Z,29.93
2023-06-19T02:38:29.259Z,29.89
2023-06-19T02:39:29.475Z,29.89
2023-06-19T02:40:29.297Z,29.86
2023-06-19T02:41:29.334Z,29.90
2023-06-19T02:42:29.319Z,29.90
2023-06-19T02:43:29.345Z,29.90
2023-06-19T02:44:29.378Z,29.92
2023-06-19T02:45:29.462Z,29.90
2023-06-19T02:46:29.494Z,29.89
2023-06-19T02:47:29.442Z,29.92
2023-06-19T02:48:29.433Z,29.92
2023-06-19T02:49:29.495Z,29.91
2023-06-19T02:50:29.510Z,29.95
2023-06-19T02:51:29.510Z,29.96
2023-06-19T02:52:29.552Z,29.95
2023-06-19T02:53:29.519Z,29.93
2023-06-19T02:54:29.585Z,29.93
2023-06-19T02:55:29.593Z,29.93
2023-06-19T02:56:29.606Z,29.93
2023-06-19T02:57:29.721Z,29.87
2023-06-19T02:58:29.605Z,29.99
2023-06-19T02:59:29.669Z,29.90
2023-06-19T03:00:29.718Z,29.95
2023-06-19T03:01:29.787Z,29.93
2023-06-19T03:02:29.764Z,29.90
2023-06-19T03:03:29.909Z,29.93
2023-06-19T03:04:29.815Z,30.00
2023-06-19T03:05:29.757Z,29.91
2023-06-19T03:06:29.787Z,29.96
2023-06-19T03:07:29.858Z,29.94
2023-06-19T03:08:29.823Z,29.96
2023-06-19T03:09:29.798Z,29.94
2023-06-19T03:10:29.848Z,29.90
2023-06-19T03:11:29.863Z,29.97
2023-06-19T03:12:29.866Z,29.96
2023-06-19T03:13:29.930Z,29.97
2023-06-19T03:14:29.922Z,29.96
2023-06-19T03:15:29.933Z,29.91
2023-06-19T03:16:30.063Z,29.96
2023-06-19T03:17:30.358Z,29.97
2023-06-19T03:18:30.060Z,29.96
2023-06-19T03:19:30.005Z,29.99
2023-06-19T03:20:30.073Z,29.90
2023-06-19T03:21:30.077Z,29.97
2023-06-19T03:22:30.089Z,29.95
2023-06-19T03:23:30.138Z,29.95
2023-06-19T03:24:30.259Z,29.96
2023-06-19T03:25:30.157Z,30.00
2023-06-19T03:26:30.215Z,29.97
2023-06-19T03:27:30.170Z,29.93
2023-06-19T03:28:30.197Z,29.98
2023-06-19T03:29:30.292Z,29.98
2023-06-19T03:30:30.241Z,30.03
2023-06-19T03:31:30.293Z,29.99
2023-06-19T03:32:32.433Z,30.04
2023-06-19T03:33:30.318Z,30.00
2023-06-19T03:34:30.318Z,30.00
2023-06-19T03:35:30.317Z,29.98
2023-06-19T03:36:30.505Z,29.97
2023-06-19T03:37:30.393Z,30.00
2023-06-19T03:38:30.439Z,30.01
2023-06-19T03:39:30.454Z,29.98
2023-06-19T03:40:32.348Z,30.00
2023-06-19T03:41:30.509Z,29.99
2023-06-19T03:42:30.535Z,30.01
2023-06-19T03:43:30.544Z,29.98
2023-06-19T03:44:30.555Z,29.97
2023-06-19T03:45:30.554Z,29.99
2023-06-19T03:46:30.643Z,29.98
2023-06-19T03:47:30.650Z,29.98
2023-06-19T03:48:30.683Z,30.01
2023-06-19T03:49:30.677Z,30.07
2023-06-19T03:50:30.896Z,30.01
2023-06-19T03:51:30.733Z,29.99
2023-06-19T03:52:30.701Z,30.04
2023-06-19T03:53:31.059Z,30.02
2023-06-19T03:54:30.810Z,30.05
2023-06-19T03:55:30.832Z,30.00
2023-06-19T03:56:30.831Z,30.01
2023-06-19T03:57:30.852Z,29.99
2023-06-19T03:58:30.896Z,30.04
2023-06-19T03:59:30.896Z,30.04
2023-06-19T04:00:30.916Z,29.99
2023-06-19T04:01:31.057Z,29.98
2023-06-19T04:02:31.031Z,30.01
2023-06-19T04:03:31.069Z,30.05
2023-06-19T04:04:31.022Z,30.00
2023-06-19T04:05:31.042Z,29.98
2023-06-19T04:06:31.056Z,30.04
2023-06-19T04:07:31.118Z,30.02
2023-06-19T04:08:31.126Z,30.01
2023-06-19T04:09:31.129Z,29.98
2023-06-19T04:10:31.808Z,30.02
2023-06-19T04:11:31.188Z,30.01
2023-06-19T04:12:31.237Z,30.02
2023-06-19T04:13:31.256Z,30.05
2023-06-19T04:14:31.266Z,30.01
2023-06-19T04:15:31.342Z,30.05
2023-06-19T04:16:31.412Z,29.99
2023-06-19T04:17:31.455Z,30.04
2023-06-19T04:18:31.397Z,30.02
2023-06-19T04:19:31.401Z,30.05
2023-06-19T04:20:31.413Z,30.02
2023-06-19T04:21:31.464Z,30.05
2023-06-19T04:22:31.472Z,30.05
2023-06-19T04:23:31.481Z,30.02
2023-06-19T04:24:31.565Z,30.05
2023-06-19T04:25:31.537Z,30.02
2023-06-19T04:26:31.590Z,30.02
2023-06-19T04:27:31.597Z,30.03
2023-06-19T04:28:31.741Z,30.02
2023-06-19T04:29:31.641Z,30.02
2023-06-19T04:30:31.741Z,30.02
2023-06-19T04:31:31.732Z,30.02
2023-06-19T04:32:31.795Z,30.02
2023-06-19T04:33:31.858Z,30.03
2023-06-19T04:34:31.771Z,30.05
2023-06-19T04:35:31.856Z,30.05
2023-06-19T04:36:31.866Z,30.02
2023-06-19T04:37:31.874Z,30.09
2023-06-19T04:38:31.941Z,30.02
2023-06-19T04:39:31.919Z,30.02
2023-06-19T04:40:31.995Z,30.05
2023-06-19T04:41:32.009Z,30.03
2023-06-19T04:42:32.025Z,30.01
2023-06-19T04:43:32.080Z,30.02
2023-06-19T04:44:32.077Z,30.05
2023-06-19T04:45:32.119Z,30.02
2023-06-19T04:46:32.185Z,30.03
2023-06-19T04:47:43.569Z,30.02
2023-06-19T04:48:33.214Z,30.02
2023-06-19T04:49:32.154Z,30.03
2023-06-19T04:50:32.281Z,29.97
2023-06-19T04:51:32.132Z,30.03
2023-06-19T04:52:32.137Z,30.02
2023-06-19T04:53:32.145Z,30.03
2023-06-19T04:54:32.152Z,30.03
2023-06-19T04:55:32.090Z,30.02
2023-06-19T04:56:32.098Z,30.00
2023-06-19T04:57:32.111Z,30.00
2023-06-19T04:58:32.173Z,30.05
2023-06-19T04:59:32.078Z,29.99
2023-06-19T05:00:32.090Z,29.99
2023-06-19T05:01:32.124Z,29.94
2023-06-19T05:02:32.085Z,29.99
2023-06-19T05:03:32.042Z,29.96
2023-06-19T05:04:32.120Z,29.89
2023-06-19T05:05:32.119Z,29.89
2023-06-19T05:06:32.105Z,29.82
2023-06-19T05:07:32.140Z,29.81
2023-06-19T05:08:32.200Z,29.88
2023-06-19T05:09:32.213Z,29.86
2023-06-19T05:10:32.258Z,29.89
2023-06-19T05:11:32.245Z,29.89
2023-06-19T05:12:32.533Z,29.89
2023-06-19T05:13:32.338Z,29.95
2023-06-19T05:14:32.336Z,29.92
2023-06-19T05:15:32.454Z,29.93
2023-06-19T05:16:34.380Z,29.91
2023-06-19T05:17:32.543Z,30.00
2023-06-19T05:18:32.467Z,29.96
2023-06-19T05:19:32.363Z,30.00
2023-06-19T05:20:32.379Z,30.00
2023-06-19T05:21:32.353Z,29.96
2023-06-19T05:22:32.344Z,29.93
2023-06-19T05:23:32.351Z,29.94
2023-06-19T05:24:32.477Z,29.94
2023-06-19T05:25:32.330Z,30.00
2023-06-19T05:26:32.326Z,29.97
2023-06-19T05:27:32.312Z,29.93
2023-06-19T05:28:32.342Z,29.91
2023-06-19T05:29:32.293Z,29.96
2023-06-19T05:30:32.308Z,29.98
2023-06-19T05:31:32.283Z,29.95
2023-06-19T05:32:32.289Z,30.01
2023-06-19T05:33:32.295Z,29.94
2023-06-19T05:34:32.808Z,30.01
2023-06-19T05:35:32.275Z,30.47
2023-06-19T05:36:32.236Z,30.76
2023-06-19T05:37:32.299Z,31.03
2023-06-19T05:39:35.616Z,31.27
2023-06-19T05:40:35.789Z,31.41
2023-06-19T05:41:35.997Z,31.57
2023-06-19T05:42:36.130Z,31.58
2023-06-19T05:43:36.427Z,32.29
2023-06-19T05:44:36.583Z,32.52
2023-06-19T05:45:36.814Z,32.35
2023-06-19T05:46:36.965Z,32.62
2023-06-19T05:47:37.161Z,32.45
2023-06-19T05:48:37.242Z,32.42
2023-06-19T05:49:37.601Z,32.71
2023-06-19T05:50:37.716Z,32.50
2023-06-19T05:51:37.925Z,32.54
2023-06-19T05:52:38.122Z,32.60
2023-06-19T05:53:38.304Z,32.63
2023-06-19T05:54:38.434Z,32.53
2023-06-19T05:55:38.647Z,32.66
2023-06-19T05:56:38.764Z,32.61
2023-06-19T05:57:38.907Z,32.63
2023-06-19T05:58:39.194Z,32.87
2023-06-19T05:59:39.292Z,32.93
2023-06-19T06:00:39.471Z,32.88
2023-06-19T06:01:39.759Z,32.96
2023-06-19T06:02:39.878Z,33.33
2023-06-19T06:03:40.013Z,33.10
2023-06-19T06:04:40.248Z,33.00
2023-06-19T06:05:40.416Z,32.98
2023-06-19T06:06:40.649Z,32.96
2023-06-19T06:07:41.673Z,33.69
2023-06-19T06:08:40.862Z,33.48
2023-06-19T06:09:40.797Z,33.03
2023-06-19T06:10:41.027Z,32.60
2023-06-19T06:11:40.826Z,32.54
2023-06-19T06:12:40.797Z,32.33
2023-06-19T06:13:40.761Z,32.30
2023-06-19T06:14:40.771Z,32.40
2023-06-19T06:15:40.734Z,32.18
2023-06-19T06:16:41.122Z,32.01
2023-06-19T06:17:40.790Z,31.98
2023-06-19T06:18:40.719Z,32.22
2023-06-19T06:19:40.737Z,32.37
2023-06-19T06:20:40.754Z,32.31
2023-06-19T06:21:40.711Z,32.18
2023-06-19T06:22:40.720Z,32.40
2023-06-19T06:23:40.728Z,32.56
2023-06-19T06:24:40.740Z,32.48
2023-06-19T06:25:40.674Z,32.57
2023-06-19T06:26:40.648Z,32.58
2023-06-19T06:27:40.650Z,32.64
2023-06-19T06:28:40.796Z,32.61
2023-06-19T06:29:40.665Z,32.61
2023-06-19T06:30:40.648Z,32.67
2023-06-19T06:31:40.753Z,32.62
2023-06-19T06:32:40.647Z,32.83
2023-06-19T06:33:40.646Z,32.57
2023-06-19T06:34:40.630Z,32.16
2023-06-19T06:35:40.632Z,32.25
2023-06-19T06:36:49.347Z,32.13
2023-06-19T06:37:41.664Z,32.41
2023-06-19T06:38:40.614Z,32.33
2023-06-19T06:39:40.616Z,32.61
2023-06-19T06:40:40.566Z,32.64
2023-06-19T06:41:40.603Z,33.93
2023-06-19T06:42:40.551Z,33.17
2023-06-19T06:43:40.599Z,32.79
2023-06-19T06:44:40.577Z,32.95
2023-06-19T06:45:40.631Z,32.82
2023-06-19T06:46:40.543Z,32.82
2023-06-19T06:47:40.591Z,32.73
2023-06-19T06:48:40.568Z,32.72
2023-06-19T06:49:40.544Z,33.06
2023-06-19T06:50:40.498Z,32.86
2023-06-19T06:51:40.505Z,32.87
2023-06-19T06:52:40.490Z,32.89
2023-06-19T06:53:40.491Z,32.87
2023-06-19T06:54:40.487Z,32.96
2023-06-19T06:55:40.539Z,32.97
2023-06-19T06:56:40.543Z,32.96
2023-06-19T06:57:40.538Z,32.98
2023-06-19T06:58:40.537Z,33.02
2023-06-19T06:59:40.537Z,33.04
2023-06-19T07:00:40.578Z,33.14
2023-06-19T07:01:40.800Z,33.13
2023-06-19T07:02:40.609Z,33.18
2023-06-19T07:03:40.588Z,33.22
2023-06-19T07:04:40.595Z,33.24
2023-06-19T07:05:40.652Z,33.24
2023-06-19T07:06:40.642Z,33.30
2023-06-19T07:07:40.761Z,33.33
2023-06-19T07:08:40.772Z,33.29
2023-06-19T07:09:40.772Z,33.36
2023-06-19T07:10:40.817Z,33.42
2023-06-19T07:11:40.975Z,33.39
2023-06-19T07:12:40.848Z,33.43
2023-06-19T07:13:40.896Z,33.39
2023-06-19T07:14:40.955Z,33.40
2023-06-19T07:15:41.058Z,33.40
2023-06-19T07:16:41.022Z,33.37
2023-06-19T07:17:41.076Z,33.41
2023-06-19T07:18:41.073Z,33.37
2023-06-19T07:19:41.112Z,33.36
2023-06-19T07:20:41.196Z,33.34
2023-06-19T07:21:41.210Z,33.38
2023-06-19T07:22:42.116Z,33.41
2023-06-19T07:23:41.284Z,33.37
2023-06-19T07:24:41.299Z,33.43
2023-06-19T07:25:41.371Z,33.35
2023-06-19T07:26:41.408Z,33.38
2023-06-19T07:27:41.404Z,33.35
2023-06-19T07:28:41.467Z,33.39
2023-06-19T07:29:41.501Z,33.37
2023-06-19T07:30:41.552Z,33.34
2023-06-19T07:31:41.636Z,33.37
2023-06-19T07:32:41.645Z,33.34
2023-06-19T07:33:41.672Z,33.31
2023-06-19T07:34:41.660Z,33.28
2023-06-19T07:35:41.696Z,33.26
2023-06-19T07:36:41.774Z,33.31
2023-06-19T07:37:41.805Z,33.26
2023-06-19T07:38:41.838Z,33.31
2023-06-19T07:39:41.865Z,33.20
2023-06-19T07:40:41.938Z,33.25
2023-06-19T07:41:42.046Z,33.21
2023-06-19T07:42:44.319Z,33.16
2023-06-19T07:43:41.992Z,33.12
2023-06-19T07:44:41.953Z,33.12
2023-06-19T07:45:41.973Z,33.07
2023-06-19T07:46:41.977Z,33.09
2023-06-19T07:47:41.989Z,33.09
2023-06-19T07:48:41.928Z,33.07
2023-06-19T07:49:41.937Z,33.03
2023-06-19T07:50:41.904Z,32.99
2023-06-19T07:51:41.900Z,32.97
2023-06-19T07:52:41.926Z,32.91
2023-06-19T07:53:41.926Z,32.87
2023-06-19T07:54:41.891Z,32.97
2023-06-19T07:55:41.906Z,32.91
2023-06-19T07:56:41.876Z,32.97
2023-06-19T07:57:41.887Z,32.95
2023-06-19T07:58:41.848Z,32.93
2023-06-19T07:59:41.884Z,32.87
2023-06-19T08:00:41.878Z,32.91
2023-06-19T08:01:41.842Z,32.90
2023-06-19T08:02:41.868Z,32.87
2023-06-19T08:03:41.928Z,32.87
2023-06-19T08:04:41.939Z,32.87
2023-06-19T08:05:41.847Z,32.90
2023-06-19T08:06:42.045Z,32.89
2023-06-19T08:07:42.639Z,32.87
2023-06-19T08:08:41.792Z,32.90
2023-06-19T08:09:41.796Z,32.89
2023-06-19T08:10:41.951Z,32.90
2023-06-19T08:11:41.836Z,32.91
2023-06-19T08:12:41.771Z,32.89
2023-06-19T08:13:41.752Z,32.90
2023-06-19T08:14:41.764Z,32.84
2023-06-19T08:15:41.840Z,32.84
2023-06-19T08:16:41.727Z,32.89
2023-06-19T08:17:41.736Z,32.91
2023-06-19T08:18:41.697Z,32.87
2023-06-19T08:19:41.716Z,32.84
2023-06-19T08:20:41.720Z,32.79
2023-06-19T08:21:41.755Z,32.86
2023-06-19T08:22:41.702Z,32.84
2023-06-19T08:23:41.727Z,32.79
2023-06-19T08:24:41.735Z,32.76
2023-06-19T08:25:41.668Z,32.70
2023-06-19T08:26:41.681Z,32.77
2023-06-19T08:27:41.674Z,32.73
2023-06-19T08:28:41.657Z,32.76
2023-06-19T08:29:41.645Z,32.72
2023-06-19T08:30:41.654Z,32.75
2023-06-19T08:31:41.651Z,32.67
2023-06-19T08:32:41.673Z,32.63
2023-06-19T08:33:41.691Z,32.64
2023-06-19T08:34:41.654Z,32.59
2023-06-19T08:35:41.632Z,32.56
2023-06-19T08:36:41.608Z,32.51
2023-06-19T08:37:41.628Z,32.49
2023-06-19T08:38:41.606Z,32.48
2023-06-19T08:39:41.606Z,32.48
2023-06-19T08:40:41.615Z,32.41
2023-06-19T08:41:41.574Z,32.40
2023-06-19T08:42:41.622Z,32.43
2023-06-19T08:43:41.638Z,32.37
2023-06-19T08:44:41.640Z,32.39
2023-06-19T08:45:41.696Z,32.36
2023-06-19T08:46:41.750Z,32.24
2023-06-19T08:47:41.780Z,32.36
2023-06-19T08:48:41.795Z,32.37
2023-06-19T08:49:41.789Z,32.36
2023-06-19T08:50:41.797Z,32.28
2023-06-19T08:51:41.861Z,32.23
2023-06-19T08:52:41.866Z,32.24
2023-06-19T08:53:41.920Z,32.23
2023-06-19T08:54:41.868Z,32.23
2023-06-19T08:55:41.940Z,32.19
2023-06-19T08:56:41.954Z,32.20
2023-06-19T08:57:41.984Z,32.22
2023-06-19T08:58:41.998Z,32.14
2023-06-19T08:59:41.999Z,32.13
2023-06-19T09:00:42.006Z,32.13
2023-06-19T09:01:42.182Z,32.09
2023-06-19T09:02:42.225Z,32.10
2023-06-19T09:03:42.318Z,32.13
2023-06-19T09:04:42.129Z,32.07
2023-06-19T09:05:42.256Z,32.13
2023-06-19T09:06:42.208Z,32.09
2023-06-19T09:07:42.216Z,32.08
2023-06-19T09:08:42.272Z,32.10
2023-06-19T09:09:42.244Z,32.02
2023-06-19T09:10:42.280Z,32.00
2023-06-19T09:11:42.482Z,32.04
2023-06-19T09:12:42.279Z,32.00
2023-06-19T09:13:42.368Z,32.02
2023-06-19T09:14:42.382Z,31.97
2023-06-19T09:15:42.388Z,32.02
2023-06-19T09:16:42.436Z,32.01
2023-06-19T09:17:42.453Z,31.94
2023-06-19T09:18:42.522Z,32.03
2023-06-19T09:19:42.536Z,31.99
2023-06-19T09:20:42.498Z,31.99
2023-06-19T09:21:42.493Z,31.96
2023-06-19T09:22:42.524Z,31.93
2023-06-19T09:23:42.556Z,31.94
2023-06-19T09:24:42.779Z,31.94
2023-06-19T09:25:42.595Z,31.90
2023-06-19T09:26:42.610Z,31.88
2023-06-19T09:27:42.721Z,31.93
2023-06-19T09:28:42.623Z,31.90
2023-06-19T09:29:42.675Z,31.90
2023-06-19T09:30:42.678Z,31.86
2023-06-19T09:31:42.694Z,31.86
2023-06-19T09:32:42.805Z,31.80
2023-06-19T09:33:42.807Z,31.83
2023-06-19T09:34:42.750Z,31.83
2023-06-19T09:35:43.642Z,31.83
2023-06-19T09:36:42.800Z,31.80
2023-06-19T09:37:42.862Z,31.76
2023-06-19T09:38:42.871Z,31.70
2023-06-19T09:39:42.877Z,31.76
2023-06-19T09:40:42.895Z,31.75
2023-06-19T09:41:42.996Z,31.77
2023-06-19T09:42:42.977Z,31.79
2023-06-19T09:43:42.985Z,31.72
2023-06-19T09:44:46.168Z,31.76
2023-06-19T09:45:43.003Z,31.70
2023-06-19T09:46:43.036Z,31.73
2023-06-19T09:47:43.059Z,31.72
2023-06-19T09:48:42.936Z,31.65
2023-06-19T09:49:42.961Z,31.66
2023-06-19T09:50:42.996Z,31.60
2023-06-19T09:51:42.934Z,31.60
2023-06-19T09:52:42.959Z,31.57
2023-06-19T09:53:42.951Z,31.59
2023-06-19T09:54:42.880Z,31.61
2023-06-19T09:55:42.904Z,31.59
2023-06-19T09:56:42.891Z,31.58
2023-06-19T09:57:42.865Z,31.56
2023-06-19T09:58:42.872Z,31.54
2023-06-19T09:59:42.915Z,31.56
2023-06-19T10:00:42.889Z,31.52
2023-06-19T10:01:42.843Z,31.58
2023-06-19T10:02:42.961Z,31.49
2023-06-19T10:03:42.883Z,31.55
2023-06-19T10:04:42.865Z,31.48
2023-06-19T10:05:42.823Z,31.49
2023-06-19T10:06:42.856Z,31.50
2023-06-19T10:07:42.782Z,31.49
2023-06-19T10:08:43.659Z,31.49
2023-06-19T10:09:42.794Z,31.49
2023-06-19T10:10:42.803Z,31.50
2023-06-19T10:11:42.807Z,31.43
2023-06-19T10:12:42.780Z,31.49
2023-06-19T10:13:42.781Z,31.46
2023-06-19T10:14:42.802Z,31.42
2023-06-19T10:15:42.808Z,31.46
2023-06-19T10:16:43.724Z,31.45
2023-06-19T10:17:42.786Z,31.44
2023-06-19T10:18:42.746Z,31.41
2023-06-19T10:19:42.750Z,31.39
2023-06-19T10:20:46.308Z,31.39
2023-06-19T10:21:42.725Z,31.39
2023-06-19T10:22:42.728Z,31.39
2023-06-19T10:23:42.673Z,31.38
2023-06-19T10:24:42.829Z,31.32
2023-06-19T10:25:42.775Z,31.29
2023-06-19T10:26:42.703Z,31.31
2023-06-19T10:27:44.370Z,31.27
2023-06-19T10:28:42.680Z,31.28
2023-06-19T10:29:47.598Z,31.30
2023-06-19T10:30:43.764Z,31.25
2023-06-19T10:31:42.653Z,31.25
2023-06-19T10:32:42.655Z,31.25
2023-06-19T10:33:42.657Z,31.21
2023-06-19T10:34:42.828Z,31.25
2023-06-19T10:35:42.638Z,31.28
2023-06-19T10:36:42.631Z,31.27
2023-06-19T10:37:42.627Z,31.21
2023-06-19T10:38:42.712Z,31.22
2023-06-19T10:39:42.583Z,31.26
2023-06-19T10:40:42.605Z,31.22
2023-06-19T10:41:42.611Z,31.22
2023-06-19T10:42:42.573Z,31.24
2023-06-19T10:43:42.592Z,31.20
2023-06-19T10:44:42.637Z,31.23
2023-06-19T10:45:42.630Z,31.20
2023-06-19T10:46:42.530Z,31.20
2023-06-19T10:47:42.635Z,31.17
2023-06-19T10:48:42.498Z,31.18
2023-06-19T10:49:42.522Z,31.17
2023-06-19T10:50:42.556Z,31.17
2023-06-19T10:51:42.530Z,31.16
2023-06-19T10:52:42.544Z,31.14
2023-06-19T10:53:42.542Z,31.13
2023-06-19T10:54:42.493Z,31.11
2023-06-19T10:55:42.513Z,31.01
2023-06-19T10:56:42.501Z,31.13
2023-06-19T10:57:42.471Z,31.10
2023-06-19T10:58:42.488Z,31.06
2023-06-19T10:59:42.482Z,31.07
2023-06-19T11:00:42.589Z,31.06
2023-06-19T11:01:42.506Z,31.03
2023-06-19T11:02:42.494Z,31.04
2023-06-19T11:03:42.587Z,31.00
2023-06-19T11:04:42.457Z,31.01
2023-06-19T11:05:42.374Z,31.00
2023-06-19T11:06:42.435Z,30.94
2023-06-19T11:07:42.429Z,30.99
2023-06-19T11:08:42.389Z,30.97
2023-06-19T11:09:44.815Z,30.91
2023-06-19T11:10:42.402Z,30.93
2023-06-19T11:11:42.475Z,30.89
2023-06-19T11:12:43.219Z,30.89
2023-06-19T11:13:42.381Z,30.89
2023-06-19T11:14:42.376Z,30.79
2023-06-19T11:15:42.351Z,30.80
2023-06-19T11:16:42.405Z,30.80
2023-06-19T11:17:42.362Z,30.81
2023-06-19T11:18:42.300Z,30.79
2023-06-19T11:19:42.424Z,30.80
2023-06-19T11:20:42.336Z,30.77
2023-06-19T11:21:42.332Z,30.76
2023-06-19T11:22:42.352Z,30.70
2023-06-19T11:23:42.306Z,30.72
2023-06-19T11:24:42.380Z,30.66
2023-06-19T11:25:42.399Z,30.67
2023-06-19T11:26:42.283Z,30.72
2023-06-19T11:27:42.286Z,30.67
2023-06-19T11:28:42.283Z,30.64
2023-06-19T11:29:42.279Z,30.62
2023-06-19T11:30:42.299Z,30.59
2023-06-19T11:31:42.306Z,30.62
2023-06-19T11:32:42.467Z,30.57
2023-06-19T11:33:42.193Z,30.59
2023-06-19T11:34:42.222Z,30.54
2023-06-19T11:35:42.212Z,30.54
2023-06-19T11:36:42.283Z,30.54
2023-06-19T11:37:42.236Z,30.55
2023-06-19T11:38:42.242Z,30.58
2023-06-19T11:39:42.201Z,30.55
2023-06-19T11:40:42.202Z,30.45
2023-06-19T11:41:42.167Z,30.46
2023-06-19T11:42:42.179Z,30.49
2023-06-19T11:43:42.165Z,30.42
2023-06-19T11:44:42.173Z,30.40
2023-06-19T11:45:42.215Z,30.43
2023-06-19T11:46:42.133Z,30.40
2023-06-19T11:47:42.282Z,30.36
2023-06-19T11:48:45.019Z,30.33
2023-06-19T11:49:43.142Z,30.35
2023-06-19T11:50:42.126Z,30.30
2023-06-19T11:51:42.143Z,30.26
2023-06-19T11:52:42.126Z,30.29
2023-06-19T11:53:42.174Z,30.30
2023-06-19T11:54:42.070Z,30.24
2023-06-19T11:55:42.054Z,30.22
2023-06-19T11:56:42.067Z,30.23
2023-06-19T11:57:42.078Z,30.20
2023-06-19T11:58:42.073Z,30.19
2023-06-19T11:59:42.105Z,30.16
2023-06-19T12:00:42.021Z,30.19
2023-06-19T12:01:42.020Z,30.12
2023-06-19T12:02:42.197Z,30.08
2023-06-19T12:03:42.136Z,30.12
2023-06-19T12:04:42.124Z,30.12
2023-06-19T12:05:42.006Z,30.03
2023-06-19T12:06:42.006Z,30.06
2023-06-19T12:07:42.033Z,29.99
2023-06-19T12:08:41.956Z,29.99
2023-06-19T12:09:42.148Z,30.05
2023-06-19T12:10:42.012Z,29.98
2023-06-19T12:11:41.972Z,29.98
2023-06-19T12:12:42.009Z,29.93
2023-06-19T12:13:42.076Z,29.92
2023-06-19T12:14:42.091Z,29.88
2023-06-19T12:15:42.106Z,29.91
2023-06-19T12:16:42.175Z,29.83
2023-06-19T12:17:42.145Z,29.85
2023-06-19T12:18:42.314Z,29.82
2023-06-19T12:19:42.252Z,29.78
2023-06-19T12:20:42.326Z,29.78
2023-06-19T12:21:43.195Z,29.75
2023-06-19T12:22:42.440Z,29.75
2023-06-19T12:23:42.442Z,29.74
2023-06-19T12:24:42.537Z,29.71
2023-06-19T12:25:42.562Z,29.68
2023-06-19T12:26:42.619Z,29.63
2023-06-19T12:27:42.701Z,29.77
2023-06-19T12:28:42.736Z,29.65
2023-06-19T12:29:42.757Z,29.68
2023-06-19T12:30:42.862Z,29.71
2023-06-19T12:31:43.023Z,29.66
2023-06-19T12:32:43.035Z,29.58
2023-06-19T12:33:43.013Z,29.55
2023-06-19T12:34:43.032Z,29.54
2023-06-19T12:35:43.097Z,29.57
2023-06-19T12:36:43.191Z,29.55
2023-06-19T12:37:43.238Z,29.50
2023-06-19T12:38:43.270Z,29.45
2023-06-19T12:39:43.373Z,29.37
2023-06-19T12:40:43.392Z,29.35
2023-06-19T12:41:43.440Z,29.32
2023-06-19T12:42:43.506Z,29.31
2023-06-19T12:43:43.546Z,29.34
2023-06-19T12:44:43.657Z,29.34
2023-06-19T12:45:43.753Z,29.33
2023-06-19T12:46:43.864Z,29.21
2023-06-19T12:47:43.862Z,29.12
2023-06-19T12:48:43.861Z,29.24
2023-06-19T12:49:43.962Z,29.27
2023-06-19T12:50:44.009Z,29.20
2023-06-19T12:51:44.042Z,29.14
2023-06-19T12:52:44.106Z,29.30
2023-06-19T12:53:44.126Z,29.23